createdAt,value
2023-05-06T00:00:24.836Z,83.00
2023-05-06T00:02:52.940Z,83.00
2023-05-06T00:05:21.011Z,83.00
2023-05-06T00:07:49.092Z,83.00
2023-05-06T00:10:17.146Z,83.00
2023-05-06T00:12:45.262Z,83.00
2023-05-06T00:15:14.777Z,83.00
2023-05-06T00:17:42.901Z,83.00
2023-05-06T00:20:11.504Z,83.00
2023-05-06T00:22:39.618Z,83.00
2023-05-06T00:25:08.578Z,83.00
2023-05-06T00:27:36.792Z,83.00
2023-05-06T00:30:05.440Z,83.00
2023-05-06T00:32:34.991Z,83.00
2023-05-06T00:35:03.462Z,83.00
2023-05-06T00:37:31.632Z,83.00
2023-05-06T00:39:59.743Z,83.00
2023-05-06T00:42:27.871Z,83.00
2023-05-06T00:44:55.969Z,83.00
2023-05-06T00:47:24.304Z,83.00
2023-05-06T00:50:01.483Z,83.00
2023-05-06T00:52:29.800Z,83.00
2023-05-06T00:54:58.008Z,83.00
2023-05-06T00:57:26.124Z,83.00
2023-05-06T00:59:54.356Z,83.00
2023-05-06T01:04:51.756Z,83.00
2023-05-06T01:07:27.879Z,83.00
2023-05-06T01:09:58.751Z,83.00
2023-05-06T01:12:30.595Z,83.00
2023-05-06T01:15:06.536Z,83.00
2023-05-06T01:17:35.248Z,83.00
2023-05-06T01:20:05.131Z,83.00
2023-05-06T01:22:34.706Z,83.00
2023-05-06T01:25:04.204Z,83.00
2023-05-06T01:27:34.891Z,83.00
2023-05-06T01:30:03.984Z,82.80
2023-05-06T01:32:37.493Z,83.00
2023-05-06T01:35:11.091Z,83.00
2023-05-06T01:37:43.297Z,82.80
2023-05-06T01:40:12.782Z,82.90
2023-05-06T01:42:40.870Z,82.80
2023-05-06T01:45:12.274Z,82.80
2023-05-06T01:47:41.069Z,82.80
2023-05-06T01:50:09.688Z,82.80
2023-05-06T01:52:37.805Z,82.80
2023-05-06T01:55:07.207Z,82.80
2023-05-06T01:57:36.949Z,82.80
2023-05-06T02:00:05.742Z,82.90
2023-05-06T02:02:33.973Z,82.80
2023-05-06T02:05:02.122Z,82.90
2023-05-06T02:07:30.300Z,82.80
2023-05-06T02:09:58.323Z,82.70
2023-05-06T02:12:26.413Z,82.70
2023-05-06T02:14:56.554Z,82.80
2023-05-06T02:17:24.931Z,82.80
2023-05-06T02:19:53.064Z,82.80
2023-05-06T02:22:21.167Z,82.80
2023-05-06T02:24:49.227Z,82.70
2023-05-06T02:27:17.303Z,82.70
2023-05-06T02:29:45.348Z,82.70
2023-05-06T02:32:14.874Z,82.70
2023-05-06T02:34:42.930Z,82.80
2023-05-06T02:37:11.002Z,82.70
2023-05-06T02:39:39.074Z,82.80
2023-05-06T02:42:07.415Z,82.80
2023-05-06T02:44:35.717Z,82.80
2023-05-06T02:47:03.974Z,82.80
2023-05-06T02:49:33.562Z,82.80
2023-05-06T02:52:01.596Z,82.60
2023-05-06T02:54:29.711Z,82.60
2023-05-06T02:56:57.780Z,82.50
2023-05-06T02:59:26.659Z,82.60
2023-05-06T03:01:54.740Z,82.70
2023-05-06T03:04:23.085Z,82.70
2023-05-06T03:06:52.617Z,82.60
2023-05-06T03:09:20.729Z,82.60
2023-05-06T03:11:49.988Z,82.50
2023-05-06T03:14:18.045Z,82.50
2023-05-06T03:16:46.168Z,82.50
2023-05-06T03:19:14.261Z,82.50
2023-05-06T03:21:42.409Z,82.40
2023-05-06T03:24:12.092Z,82.60
2023-05-06T03:26:40.193Z,82.40
2023-05-06T03:29:08.276Z,82.50
2023-05-06T03:31:36.404Z,82.50
2023-05-06T03:34:04.512Z,82.50
2023-05-06T03:36:33.209Z,82.30
2023-05-06T03:39:01.309Z,82.40
2023-05-06T03:41:31.025Z,82.40
2023-05-06T03:43:59.087Z,82.30
2023-05-06T03:46:27.308Z,82.30
2023-05-06T03:48:56.707Z,82.30
2023-05-06T03:51:24.764Z,82.30
2023-05-06T03:53:54.765Z,82.30
2023-05-06T03:56:37.369Z,82.30
2023-05-06T03:59:10.100Z,82.30
2023-05-06T04:01:38.204Z,82.30
2023-05-06T04:04:06.674Z,82.30
2023-05-06T04:06:34.917Z,82.20
2023-05-06T04:09:04.379Z,82.20
2023-05-06T04:11:32.482Z,82.20
2023-05-06T04:14:01.091Z,82.10
2023-05-06T04:16:30.569Z,82.20
2023-05-06T04:18:58.728Z,82.10
2023-05-06T04:21:26.878Z,82.20
2023-05-06T04:23:55.005Z,82.10
2023-05-06T04:26:23.130Z,82.10
2023-05-06T04:28:51.607Z,82.00
2023-05-06T04:31:19.728Z,82.10
2023-05-06T04:33:49.274Z,82.10
2023-05-06T04:36:17.412Z,82.10
2023-05-06T04:38:45.483Z,82.00
2023-05-06T04:41:14.080Z,82.10
2023-05-06T04:43:42.497Z,82.00
2023-05-06T04:46:10.741Z,82.00
2023-05-06T04:48:39.005Z,82.00
2023-05-06T04:51:09.419Z,82.00
2023-05-06T04:53:37.514Z,82.00
2023-05-06T04:56:05.894Z,82.00
2023-05-06T04:58:33.977Z,81.90
2023-05-06T05:01:04.887Z,82.00
2023-05-06T05:03:33.114Z,82.00
2023-05-06T05:06:01.338Z,82.00
2023-05-06T05:08:30.767Z,82.00
2023-05-06T05:10:58.869Z,81.90
2023-05-06T05:13:27.054Z,82.00
2023-05-06T05:15:56.145Z,81.90
2023-05-06T05:18:24.408Z,81.90
2023-05-06T05:20:52.701Z,81.90
2023-05-06T05:23:20.828Z,81.90
2023-05-06T05:25:50.257Z,81.90
2023-05-06T05:28:18.321Z,81.90
2023-05-06T05:30:46.467Z,81.90
2023-05-06T05:33:14.653Z,81.90
2023-05-06T05:35:45.575Z,81.90
2023-05-06T05:38:14.376Z,81.90
2023-05-06T05:40:42.460Z,81.90
2023-05-06T05:43:11.934Z,81.90
2023-05-06T05:45:40.046Z,81.90
2023-05-06T05:48:08.120Z,81.90
2023-05-06T05:50:36.158Z,81.90
2023-05-06T05:53:04.206Z,81.80
2023-05-06T05:55:32.320Z,81.80
2023-05-06T05:58:02.729Z,81.80
2023-05-06T06:00:32.345Z,81.90
2023-05-06T06:03:00.733Z,81.80
2023-05-06T06:05:29.101Z,81.80
2023-05-06T06:07:57.162Z,81.80
2023-05-06T06:10:25.249Z,81.80
2023-05-06T06:12:53.369Z,81.80
2023-05-06T06:15:21.515Z,81.70
2023-05-06T06:17:50.980Z,81.80
2023-05-06T06:20:19.494Z,81.80
2023-05-06T06:22:47.568Z,81.60
2023-05-06T06:25:21.579Z,81.70
2023-05-06T06:27:49.747Z,81.70
2023-05-06T06:30:17.860Z,81.70
2023-05-06T06:32:50.687Z,81.80
2023-05-06T06:35:19.919Z,81.70
2023-05-06T06:37:48.058Z,81.70
2023-05-06T06:40:16.438Z,81.70
2023-05-06T06:42:44.567Z,81.70
2023-05-06T06:45:14.232Z,81.50
2023-05-06T06:47:42.402Z,81.60
2023-05-06T06:50:12.592Z,81.80
2023-05-06T06:52:40.678Z,81.80
2023-05-06T06:55:10.211Z,81.60
2023-05-06T06:57:41.586Z,81.60
2023-05-06T07:00:10.665Z,81.50
2023-05-06T07:02:38.855Z,81.60
2023-05-06T07:05:07.853Z,81.40
2023-05-06T07:07:37.469Z,81.50
2023-05-06T07:11:32.572Z,81.50
2023-05-06T07:13:34.594Z,81.60
2023-05-06T07:16:02.662Z,81.60
2023-05-06T07:18:30.781Z,81.60
2023-05-06T07:21:02.807Z,81.70
2023-05-06T07:23:32.383Z,81.50
2023-05-06T07:26:00.761Z,81.40
2023-05-06T07:28:28.852Z,81.30
2023-05-06T07:30:59.991Z,81.40
2023-05-06T07:33:28.159Z,81.30
2023-05-06T07:35:56.210Z,81.10
2023-05-06T07:38:24.946Z,80.80
2023-05-06T07:40:54.380Z,80.70
2023-05-06T07:43:23.343Z,80.60
2023-05-06T07:45:51.424Z,80.60
2023-05-06T07:48:20.277Z,80.50
2023-05-06T07:50:48.499Z,80.30
2023-05-06T07:53:16.540Z,80.30
2023-05-06T07:55:44.694Z,80.20
2023-05-06T07:58:14.173Z,80.20
2023-05-06T08:00:42.302Z,80.10
2023-05-06T08:03:10.465Z,80.20
2023-05-06T08:05:38.590Z,80.10
2023-05-06T08:08:06.767Z,80.10
2023-05-06T08:10:35.053Z,80.00
2023-05-06T08:13:03.349Z,80.10
2023-05-06T08:15:32.804Z,80.10
2023-05-06T08:18:13.731Z,79.90
2023-05-06T08:21:00.249Z,80.00
2023-05-06T08:23:28.272Z,79.90
2023-05-06T08:25:56.338Z,80.00
2023-05-06T08:28:25.266Z,80.00
2023-05-06T08:30:54.897Z,80.00
2023-05-06T08:33:22.981Z,80.00
2023-05-06T08:35:51.185Z,79.90
2023-05-06T08:38:19.222Z,80.10
2023-05-06T08:40:47.279Z,79.90
2023-05-06T08:43:15.513Z,80.00
2023-05-06T08:45:43.749Z,80.00
2023-05-06T08:48:13.222Z,79.90
2023-05-06T08:50:43.431Z,79.90
2023-05-06T08:53:12.647Z,79.90
2023-05-06T08:55:41.940Z,80.00
2023-05-06T08:58:10.068Z,79.90
2023-05-06T09:00:38.223Z,80.00
2023-05-06T09:03:06.400Z,79.90
2023-05-06T09:05:36.036Z,80.00
2023-05-06T09:08:04.160Z,79.90
2023-05-06T09:10:39.586Z,79.90
2023-05-06T09:13:07.728Z,80.00
2023-05-06T09:15:41.196Z,80.00
2023-05-06T09:18:09.483Z,79.90
2023-05-06T09:20:41.491Z,80.00
2023-05-06T09:23:10.192Z,79.90
2023-05-06T09:25:38.330Z,80.00
2023-05-06T09:28:06.718Z,79.90
2023-05-06T09:30:34.900Z,79.90
2023-05-06T09:33:04.869Z,80.00
2023-05-06T09:35:39.410Z,80.00
2023-05-06T09:38:07.636Z,80.00
2023-05-06T09:40:36.126Z,80.00
2023-05-06T09:43:07.827Z,79.90
2023-05-06T09:45:36.464Z,80.00
2023-05-06T09:48:05.093Z,80.00
2023-05-06T09:50:33.911Z,80.00
2023-05-06T09:53:04.363Z,80.00
2023-05-06T09:55:32.444Z,80.00
2023-05-06T09:58:01.656Z,80.00
2023-05-06T10:00:30.040Z,80.00
2023-05-06T10:02:58.339Z,80.00
2023-05-06T10:05:26.686Z,80.00
2023-05-06T10:07:54.850Z,80.00
2023-05-06T10:10:28.952Z,80.10
2023-05-06T10:12:57.230Z,80.00
2023-05-06T10:15:25.485Z,80.00
2023-05-06T10:17:53.638Z,80.10
2023-05-06T10:20:22.232Z,80.00
2023-05-06T10:22:54.358Z,80.10
2023-05-06T10:25:25.162Z,80.10
2023-05-06T10:27:54.670Z,80.00
2023-05-06T10:30:23.066Z,80.10
2023-05-06T10:32:51.319Z,80.10
2023-05-06T10:35:21.725Z,80.20
2023-05-06T10:37:50.734Z,80.10
2023-05-06T10:40:18.900Z,80.00
2023-05-06T10:42:47.015Z,80.10
2023-05-06T10:45:16.673Z,80.10
2023-05-06T10:48:18.390Z,80.10
2023-05-06T10:50:46.875Z,80.10
2023-05-06T10:53:15.007Z,80.10
2023-05-06T10:55:43.069Z,80.20
2023-05-06T10:58:14.828Z,80.20
2023-05-06T11:00:44.479Z,80.20
2023-05-06T11:03:13.454Z,80.20
2023-05-06T11:05:51.737Z,80.20
2023-05-06T11:08:23.306Z,80.20
2023-05-06T11:10:51.764Z,80.20
2023-05-06T11:13:24.558Z,80.20
2023-05-06T11:15:54.094Z,80.20
2023-05-06T11:18:44.245Z,80.20
2023-05-06T11:21:40.176Z,80.20
2023-05-06T11:24:09.922Z,80.20
2023-05-06T11:26:38.019Z,80.20
2023-05-06T11:29:07.212Z,80.20
2023-05-06T11:31:43.111Z,80.20
2023-05-06T11:34:16.118Z,80.30
2023-05-06T11:36:52.312Z,80.30
2023-05-06T11:39:21.080Z,80.30
2023-05-06T11:41:49.261Z,80.20
2023-05-06T11:44:37.521Z,80.30
2023-05-06T11:47:08.241Z,80.30
2023-05-06T11:49:41.160Z,80.20
2023-05-06T11:52:09.661Z,80.30
2023-05-06T11:54:39.647Z,80.20
2023-05-06T11:57:07.751Z,80.20
2023-05-06T11:59:37.530Z,80.20
2023-05-06T12:02:07.724Z,80.20
2023-05-06T12:04:39.726Z,80.30
2023-05-06T12:07:08.334Z,80.30
2023-05-06T12:09:37.069Z,80.40
2023-05-06T12:12:05.656Z,80.30
2023-05-06T12:14:33.829Z,80.40
2023-05-06T12:17:01.956Z,80.40
2023-05-06T12:19:31.661Z,80.30
2023-05-06T12:22:18.069Z,80.30
2023-05-06T12:24:46.286Z,80.40
2023-05-06T12:27:31.797Z,80.40
2023-05-06T12:30:00.608Z,80.40
2023-05-06T12:32:28.785Z,80.40
2023-05-06T12:34:59.523Z,80.40
2023-05-06T12:37:29.253Z,80.50
2023-05-06T12:39:59.066Z,80.40
2023-05-06T12:42:27.694Z,80.40
2023-05-06T12:44:55.827Z,80.40
2023-05-06T12:47:24.912Z,80.50
2023-05-06T12:50:07.873Z,80.50
2023-05-06T12:52:40.247Z,80.50
2023-05-06T12:55:08.941Z,80.50
2023-05-06T12:57:37.359Z,80.50
2023-05-06T13:00:07.449Z,80.60
2023-05-06T13:02:35.611Z,80.60
2023-05-06T13:05:05.651Z,80.60
2023-05-06T13:07:33.785Z,80.60
2023-05-06T13:10:03.231Z,80.60
2023-05-06T13:12:31.344Z,80.70
2023-05-06T13:14:59.519Z,80.70
2023-05-06T13:17:27.749Z,80.70
2023-05-06T13:19:56.987Z,80.70
2023-05-06T13:22:26.427Z,80.70
2023-05-06T13:24:54.584Z,80.70
2023-05-06T13:27:22.666Z,80.70
2023-05-06T13:29:51.152Z,80.80
2023-05-06T13:35:05.777Z,80.80
2023-05-06T13:37:35.289Z,80.80
2023-05-06T13:40:03.538Z,80.90
2023-05-06T13:42:31.689Z,80.90
2023-05-06T13:44:59.769Z,80.90
2023-05-06T13:47:33.283Z,80.90
2023-05-06T13:50:03.713Z,80.90
2023-05-06T13:52:31.874Z,80.80
2023-05-06T13:55:01.603Z,80.90
2023-05-06T13:57:29.726Z,80.80
2023-05-06T13:59:57.828Z,80.90
2023-05-06T14:02:26.560Z,80.90
2023-05-06T14:05:02.057Z,80.90
2023-05-06T14:07:30.208Z,80.90
2023-05-06T14:09:58.919Z,80.90
2023-05-06T14:12:28.409Z,80.90
2023-05-06T14:14:56.515Z,81.00
2023-05-06T14:17:24.644Z,80.90
2023-05-06T14:19:52.809Z,80.90
2023-05-06T14:22:20.894Z,80.90
2023-05-06T14:24:48.978Z,80.90
2023-05-06T14:27:17.104Z,80.90
2023-05-06T14:29:46.608Z,81.00
2023-05-06T14:32:14.716Z,81.00
2023-05-06T14:34:42.797Z,81.00
2023-05-06T14:37:10.987Z,81.10
2023-05-06T14:39:39.060Z,81.10
2023-05-06T14:42:07.238Z,81.10
2023-05-06T14:44:35.722Z,81.10
2023-05-06T14:47:05.224Z,81.00
2023-05-06T14:49:33.316Z,81.00
2023-05-06T14:52:01.542Z,81.10
2023-05-06T14:54:43.441Z,81.10
2023-05-06T14:57:11.636Z,81.10
2023-05-06T14:59:39.716Z,81.10
2023-05-06T15:02:09.869Z,81.10
2023-05-06T15:04:38.115Z,81.10
2023-05-06T15:07:06.314Z,81.10
2023-05-06T15:09:34.429Z,81.10
2023-05-06T15:12:03.296Z,81.10
2023-05-06T15:14:31.385Z,81.10
2023-05-06T15:16:59.517Z,81.10
2023-05-06T15:19:29.140Z,81.10
2023-05-06T15:21:57.230Z,81.10
2023-05-06T15:24:26.124Z,81.20
2023-05-06T15:26:54.660Z,81.20
2023-05-06T15:29:22.736Z,81.20
2023-05-06T15:31:50.857Z,81.10
2023-05-06T15:34:20.790Z,81.20
2023-05-06T15:36:53.448Z,81.20
2023-05-06T15:39:21.538Z,81.20
2023-05-06T15:41:49.668Z,81.20
2023-05-06T15:44:20.653Z,81.20
2023-05-06T15:46:51.218Z,81.20
2023-05-06T15:49:47.463Z,81.20
2023-05-06T15:52:08.760Z,81.20
2023-05-06T15:54:37.488Z,81.30
2023-05-06T15:57:07.088Z,81.20
2023-05-06T15:59:35.287Z,81.20
2023-05-06T16:04:34.961Z,81.20
2023-05-06T16:07:03.293Z,81.30
2023-05-06T16:09:32.752Z,81.20
2023-05-06T16:12:01.375Z,81.30
2023-05-06T16:14:29.459Z,81.30
2023-05-06T16:16:57.584Z,81.30
2023-05-06T16:19:26.094Z,81.30
2023-05-06T16:21:54.479Z,81.40
2023-05-06T16:24:22.583Z,81.40
2023-05-06T16:26:52.088Z,81.30
2023-05-06T16:29:20.753Z,81.40
2023-05-06T16:31:49.094Z,81.40
2023-05-06T16:34:17.205Z,81.30
2023-05-06T16:36:45.976Z,81.40
2023-05-06T16:39:14.106Z,81.40
2023-05-06T16:41:42.618Z,81.10
2023-05-06T16:44:12.070Z,81.00
2023-05-06T16:46:40.211Z,81.00
2023-05-06T16:49:08.458Z,81.20
2023-05-06T16:51:43.826Z,81.20
2023-05-06T16:54:11.927Z,81.20
2023-05-06T16:56:50.749Z,81.20
2023-05-06T16:59:22.413Z,81.30
2023-05-06T17:01:50.961Z,81.20
2023-05-06T17:04:19.103Z,80.80
2023-05-06T17:06:47.417Z,80.60
2023-05-06T17:09:21.765Z,80.60
2023-05-06T17:11:52.851Z,80.50
2023-05-06T17:14:22.797Z,80.60
2023-05-06T17:16:52.014Z,80.50
2023-05-06T17:19:20.146Z,80.50
2023-05-06T17:21:48.187Z,80.60
2023-05-06T17:24:16.247Z,80.60
2023-05-06T17:26:44.392Z,80.60
2023-05-06T17:29:26.121Z,80.50
2023-05-06T17:32:06.360Z,80.40
2023-05-06T17:34:39.036Z,80.40
2023-05-06T17:37:07.392Z,80.30
2023-05-06T17:39:36.342Z,80.30
2023-05-06T17:42:04.407Z,80.30
2023-05-06T17:44:35.361Z,80.40
2023-05-06T17:47:06.319Z,80.20
2023-05-06T17:49:34.554Z,80.40
2023-05-06T17:52:02.627Z,80.20
2023-05-06T17:54:32.298Z,80.30
2023-05-06T17:57:00.985Z,80.30
2023-05-06T17:59:29.198Z,80.20
2023-05-06T18:01:58.708Z,80.20
2023-05-06T18:04:29.888Z,80.30
2023-05-06T18:06:57.979Z,80.30
2023-05-06T18:09:26.187Z,80.40
2023-05-06T18:11:57.480Z,80.40
2023-05-06T18:14:25.564Z,80.30
2023-05-06T18:16:53.682Z,80.30
2023-05-06T18:19:23.226Z,80.30
2023-05-06T18:21:51.284Z,80.40
2023-05-06T18:24:19.508Z,80.30
2023-05-06T18:26:47.570Z,80.50
2023-05-06T18:29:15.623Z,80.40
2023-05-06T18:31:43.817Z,80.40
2023-05-06T18:34:12.034Z,80.50
2023-05-06T18:36:41.486Z,80.60
2023-05-06T18:39:09.561Z,80.60
2023-05-06T18:41:37.666Z,80.70
2023-05-06T18:44:06.117Z,80.70
2023-05-06T18:46:34.474Z,80.80
2023-05-06T18:49:02.615Z,80.80
2023-05-06T18:51:32.023Z,80.90
2023-05-06T18:54:01.570Z,80.90
2023-05-06T18:56:29.827Z,81.10
2023-05-06T18:58:57.990Z,81.10
2023-05-06T19:01:26.301Z,81.10
2023-05-06T19:03:54.555Z,81.30
2023-05-06T19:06:22.694Z,81.30
2023-05-06T19:08:58.300Z,81.40
2023-05-06T19:11:27.751Z,81.50
2023-05-06T19:13:55.939Z,81.40
2023-05-06T19:16:24.095Z,81.50
2023-05-06T19:18:52.338Z,81.60
2023-05-06T19:21:20.385Z,81.60
2023-05-06T19:23:48.497Z,81.70
2023-05-06T19:26:18.981Z,81.80
2023-05-06T19:28:48.750Z,81.80
2023-05-06T19:31:16.930Z,81.90
2023-05-06T19:33:45.009Z,81.80
2023-05-06T19:36:13.102Z,81.90
2023-05-06T19:38:41.213Z,82.00
2023-05-06T19:41:10.692Z,82.00
2023-05-06T19:43:42.167Z,82.00
2023-05-06T19:46:11.744Z,82.00
2023-05-06T19:48:39.965Z,81.90
2023-05-06T19:51:08.222Z,81.90
2023-05-06T19:53:37.158Z,81.90
2023-05-06T19:56:11.733Z,81.90
2023-05-06T19:58:49.232Z,82.10
2023-05-06T20:01:22.444Z,82.00
2023-05-06T20:03:50.679Z,82.00
2023-05-06T20:06:18.827Z,82.10
2023-05-06T20:08:46.993Z,82.10
2023-05-06T20:11:15.136Z,82.20
2023-05-06T20:13:43.257Z,82.20
2023-05-06T20:16:25.270Z,82.30
2023-05-06T20:18:55.474Z,82.30
2023-05-06T20:21:23.563Z,82.30
2023-05-06T20:23:51.660Z,82.40
2023-05-06T20:26:19.738Z,82.30
2023-05-06T20:28:47.771Z,82.40
2023-05-06T20:31:15.927Z,82.40
2023-05-06T20:33:44.321Z,82.40
2023-05-06T20:36:13.838Z,82.50
2023-05-06T20:38:41.885Z,82.40
2023-05-06T20:41:09.985Z,82.40
2023-05-06T20:43:38.110Z,82.50
2023-05-06T20:46:06.820Z,82.50
2023-05-06T20:48:35.058Z,82.50
2023-05-06T20:51:03.162Z,82.50
2023-05-06T20:53:32.814Z,82.50
2023-05-06T20:56:01.103Z,82.60
2023-05-06T20:58:29.648Z,82.60
2023-05-06T21:00:57.803Z,82.70
2023-05-06T21:03:27.185Z,82.70
2023-05-06T21:05:58.601Z,82.70
2023-05-06T21:08:29.800Z,82.70
2023-05-06T21:10:59.265Z,82.60
2023-05-06T21:13:27.388Z,82.70
2023-05-06T21:15:55.577Z,82.60
2023-05-06T21:18:23.886Z,82.60
2023-05-06T21:20:57.537Z,82.70
2023-05-06T21:23:25.726Z,82.70
2023-05-06T21:25:53.808Z,82.60
2023-05-06T21:28:23.362Z,82.80
2023-05-06T21:30:51.496Z,82.80
2023-05-06T21:33:19.600Z,82.80
2023-05-06T21:35:47.689Z,82.80
2023-05-06T21:38:15.895Z,82.80
2023-05-06T21:40:43.967Z,82.90
2023-05-06T21:43:12.747Z,83.00
2023-05-06T21:45:42.228Z,83.10
2023-05-06T21:48:10.623Z,83.00
2023-05-06T21:50:38.825Z,83.00
2023-05-06T21:53:06.931Z,83.10
2023-05-06T21:55:35.164Z,83.20
2023-05-06T21:58:06.271Z,83.20
2023-05-06T22:00:34.391Z,83.20
2023-05-06T22:03:11.108Z,83.20
2023-05-06T22:05:40.074Z,83.30
2023-05-06T22:08:08.130Z,83.20
2023-05-06T22:10:36.260Z,83.20
2023-05-06T22:13:04.422Z,83.40
2023-05-06T22:15:35.902Z,83.30
2023-05-06T22:18:05.561Z,83.30
2023-05-06T22:20:33.799Z,83.40
2023-05-06T22:23:01.916Z,83.40
2023-05-06T22:25:30.054Z,83.40
2023-05-06T22:27:58.264Z,83.30
2023-05-06T22:30:26.788Z,83.40
2023-05-06T22:32:54.910Z,83.50
2023-05-06T22:35:24.406Z,83.50
2023-05-06T22:37:52.503Z,83.50
2023-05-06T22:40:20.680Z,83.50
2023-05-06T22:42:49.125Z,83.50
2023-05-06T22:45:17.307Z,83.60
2023-05-06T22:47:45.431Z,83.60
2023-05-06T22:50:13.802Z,83.60
2023-05-06T22:52:43.286Z,83.60
2023-05-06T22:55:11.964Z,83.60
2023-05-06T22:57:40.297Z,83.70
2023-05-06T23:00:12.461Z,83.70
2023-05-06T23:02:40.968Z,83.70
2023-05-06T23:05:09.907Z,83.80
2023-05-06T23:07:38.818Z,83.80
2023-05-06T23:10:09.621Z,83.90
2023-05-06T23:12:37.745Z,84.00
2023-05-06T23:15:07.404Z,83.90
2023-05-06T23:17:35.578Z,84.10
2023-05-06T23:20:04.306Z,84.00
2023-05-06T23:22:32.429Z,84.00
2023-05-06T23:25:00.555Z,83.90
2023-05-06T23:27:30.044Z,83.90
2023-05-06T23:29:58.288Z,84.00
2023-05-06T23:32:27.734Z,84.00
2023-05-06T23:34:55.870Z,84.10
2023-05-06T23:37:31.949Z,84.00
2023-05-06T23:40:00.068Z,84.10
2023-05-06T23:42:29.607Z,84.20
2023-05-06T23:44:58.355Z,84.20
2023-05-06T23:47:26.537Z,84.20
2023-05-06T23:49:54.642Z,84.20
2023-05-06T23:52:22.745Z,84.20
2023-05-06T23:54:56.087Z,84.20
2023-05-06T23:57:24.185Z,84.20
2023-05-06T23:59:53.648Z,84.30
